Startpagina
METAR-TAF:

METAR-TAF

Vliegvelden :

Vliegveld de Kooy

Den Helder, Nederland

breedte: 52-55N, lengte: 004-47E, hoogte: 0 m

Actueel weer

Dit bericht is 14 minuten geleden gemaakt, om 17:25 UTC
Wind 17 kt uit het noordoosten, variërend tussen het noordnoordoosten en het oosten
Temperatuur 17°C
Vochtigheid 72%
Druk 1018 hPa
Zicht 10 km of meer

METAR: EHKD 191725Z AUTO 05017KT 020V080 9999 NCD 17/12 Q1018 BLU NOSIG

Tijdstip: 19:39 (17:39 UTC)

Verwachting

Dit bericht is 48 minuten geleden gemaakt, om 16:51 UTC
Verwachting geldig van 19 om 17 UTC tot 20 om 05 UTC
Wind 12 kt uit het noordoosten
Zicht 10 km of meer
geen wolken onder 1500 m en geen cumulonimbus

TAF: EHKD 191651Z 1917/2005 05012KT CAVOK

Waarnemingen en weersverwachtingen van meer dan 4000 vliegvelden (METAR en TAF).

De beschikbare stations zijn de gele en rode punten op de kaart.

Ga met uw muis naar het station om de naam te zien.

Klik dan om waarnemingen en weersverwachtingen te zien.

kaart wijzigen: klik op de groene knoppen met een zwart kruis om in te zoomen, op de groene knop met een streepje om uit te zoomen of op de groene pijlen voor aangrenzende kaarten.


METAR-TAF: